Sheridan, WY

6:24 AM MST on March 03, 2015 (GMT -0700)
South Big Horn County | Change Station
CLOSE
Current Station
Airport
Location: Greybull,
Elevation: 3934 ft
Nearby Weather Stations
Active Advisory: Winter Storm Warning

Elev 3934 ft 44.52 °N, 108.08 °W | Updated 9 minutes ago

Snow
Snow
17 °F
Feels Like 2 °F
N
17
Wind Variable Wind from NNW

Today
High -- | Low -- °F
--% Chance of Precip.
Yesterday
High -- | Low -- °F
Precip. -- in
6:42 AM 5:57 PM
Waxing Gibbous, 96% visible
Pressure 29.94 in
Visibility 1.8 miles
Clouds Overcast 1900 ft
Windchill 2 °F
Dew Point 7 °F
Humidity 65%
Rainfall 0.00 in
Snow Depth Not available.
UV 0 out of 12
Pollen .40 out of 12
Air Quality Not available.
Flu Activity Not available.
SPECI KGEY 031315Z AUTO 34015KT 1 3/4SM -SN OVC019 M08/M14 A2994 RMK AO2 SNB06 P0000 T10831139

More Conditions Fewer Conditions

Pressure 29.94 in
Visibility 1.8 miles
Clouds Overcast 1900 ft
Windchill 2 °F
Dew Point 7 °F
Humidity 65%
Rainfall 0.00 in
Snow Depth Not available.
UV 0 out of 12
Pollen .40 out of 12
Air Quality Not available.
Flu Activity Not available.
SPECI KGEY 031315Z AUTO 34015KT 1 3/4SM -SN OVC019 M08/M14 A2994 RMK AO2 SNB06 P0000 T10831139

More Conditions Fewer Conditions

10-Day Weather Forecast

Almanac

Astronomy

Mar. 03, 2015 Rise Set
Actual Time
Civil Twilight
Nautical Twilight
Astronomical Twilight
Moon
Length of Visible Light
Length of Day
Tomorrow will be .
, % of the Moon is Illuminated

Today's Extremes

State Highs State Lows

Community

WunderPhotos

Upload Photos

1,802,100 photos uploaded!

WunderBlogs® & News

Nearby

Air Quality

  Air Quality AQ Index Pollutant
Not available.

Snow Depth

Station Depth Elevation

Earthquake Activity

City Distance Mag. Time & Date
Minimum magnitude displayed is 2.5.

Coastal Water Temperatures

Place Temperature

Nearby Weather Stations

Winter Storm Warning
Statement as of 3:59 AM MST on March 03, 2015

... Winter Storm Warning remains in effect until noon MST today...

A Winter Storm Warning for heavy snow and blowing snow remains in
effect until noon MST today.

* Timing... through noon today.

* Impacts... very hazardous driving conditions on area roadways.
I-90 south of Sheridan is closed at this time. The cold and snow
will also threaten Young livestock.

* Additional snowfall... 1 to 3 inches.

* Winds... north at 15 to 25 mph.

* Wind chill values... 5 to 15 below zero.

Precautionary/preparedness actions...

Dangerous driving conditions are possible due to limited
visibility and slick or snowpacked roads. Drifting snow may also
impede travel. Please check Road reports or delay travel.